Time;durP1;ratioP1;P1;durP2;ratioP2;P2;SDS_P1;SDS_P2;PMS_P1;PMS_P2;Temp;Humidity;BMP_temperature;BMP_pressure;BME280_temperature;BME280_humidity;BME280_pressure;Samples;Min_cycle;Max_cycle;Signal;HPM_P1;HPM_P2
2022/01/02 00:00:44;;;;;;;2.70;1.30;;;22.80;63.40;;;;;;4941017;28;97543;-58
2022/01/02 00:03:23;;;;;;;2.80;1.30;;;22.90;63.30;;;;;;4950672;28;95224;-58
2022/01/02 00:05:58;;;;;;;1.30;1.20;;;22.90;63.20;;;;;;4951239;28;95837;-58
2022/01/02 00:08:38;;;;;;;1.35;1.08;;;22.90;63.20;;;;;;4951292;28;95249;-57
2022/01/02 00:11:13;;;;;;;3.28;1.25;;;23.00;63.10;;;;;;4947738;28;96114;-59
2022/01/02 00:13:47;;;;;;;1.38;1.20;;;23.00;63.00;;;;;;4950301;28;95610;-58
2022/01/02 00:16:17;;;;;;;2.75;1.40;;;23.10;62.90;;;;;;4941929;28;95804;-58
2022/01/02 00:19:03;;;;;;;1.48;1.00;;;23.10;62.80;;;;;;4950423;28;95972;-61
2022/01/02 00:21:44;;;;;;;0.93;0.90;;;23.10;62.60;;;;;;4949128;28;96176;-58
2022/01/02 00:24:20;;;;;;;3.17;1.58;;;23.20;62.60;;;;;;4947948;28;96755;-58
2022/01/02 00:26:51;;;;;;;1.15;1.00;;;23.20;62.50;;;;;;4950377;28;95463;-60
2022/01/02 00:29:22;;;;;;;1.73;1.17;;;23.20;62.40;;;;;;4950388;28;95761;-59
2022/01/02 00:31:54;;;;;;;1.38;1.02;;;23.30;62.30;;;;;;4942134;28;96001;-57
2022/01/02 00:34:23;;;;;;;;;;;23.30;62.10;;;;;;4945290;28;97611;-59
2022/01/02 00:36:54;;;;;;;0.85;0.80;;;23.40;62.10;;;;;;4950432;28;95699;-59
2022/01/02 00:39:25;;;;;;;2.00;1.10;;;23.40;61.90;;;;;;4950422;28;95824;-60
2022/01/02 00:42:07;;;;;;;0.98;0.98;;;23.40;61.80;;;;;;4941825;28;98043;-60
2022/01/02 00:44:49;;;;;;;0.77;0.77;;;23.50;61.80;;;;;;4948129;28;95474;-58
2022/01/02 00:47:47;;;;;;;4.32;1.58;;;23.50;61.60;;;;;;4941605;28;99680;-58
2022/01/02 00:50:27;;;;;;;0.88;0.70;;;23.50;61.50;;;;;;4962492;28;95829;-58
2022/01/02 00:53:02;;;;;;;1.00;1.00;;;23.60;61.40;;;;;;4949329;28;96621;-59
2022/01/02 00:55:37;;;;;;;1.35;0.77;;;23.60;61.30;;;;;;4944688;28;97169;-56
2022/01/02 00:58:14;;;;;;;1.20;1.10;;;23.60;61.20;;;;;;4934845;28;95939;-59
2022/01/02 01:00:51;;;;;;;0.90;0.90;;;23.70;61.10;;;;;;4942980;28;95962;-58
2022/01/02 01:03:29;;;;;;;1.08;0.98;;;23.70;61.00;;;;;;4939642;28;96267;-58
2022/01/02 01:06:04;;;;;;;1.30;0.95;;;23.70;60.90;;;;;;4947768;28;95822;-59
2022/01/02 01:08:40;;;;;;;1.73;0.98;;;23.80;60.80;;;;;;4954041;28;96184;-61
2022/01/02 01:11:12;;;;;;;2.25;0.90;;;23.90;60.80;;;;;;4954001;28;95640;-59
2022/01/02 01:13:42;;;;;;;1.65;1.20;;;23.90;60.70;;;;;;4949151;28;96182;-57
2022/01/02 01:16:16;;;;;;;2.13;1.23;;;23.90;60.60;;;;;;4937255;28;95500;-56
2022/01/02 01:18:49;;;;;;;0.85;0.80;;;24.00;60.60;;;;;;4948983;28;96500;-56
2022/01/02 01:21:20;;;;;;;0.90;0.90;;;24.10;60.50;;;;;;4948697;28;96203;-58
2022/01/02 01:23:51;;;;;;;1.15;0.90;;;24.10;60.30;;;;;;4949499;28;96090;-59
2022/01/02 01:26:24;;;;;;;0.90;0.90;;;24.10;60.20;;;;;;4960031;28;97789;-60
2022/01/02 01:28:54;;;;;;;0.90;0.90;;;24.10;60.10;;;;;;4964264;28;95706;-56
2022/01/02 01:31:23;;;;;;;0.93;0.93;;;24.20;60.10;;;;;;4938330;28;99201;-57
2022/01/02 01:33:54;;;;;;;1.15;1.00;;;24.20;60.10;;;;;;4946611;28;97934;-57
2022/01/02 01:36:27;;;;;;;1.02;1.02;;;24.30;60.10;;;;;;4948611;28;96039;-61
2022/01/02 01:38:58;;;;;;;1.20;1.10;;;24.30;60.00;;;;;;4962359;28;95962;-58
2022/01/02 01:41:35;;;;;;;1.27;1.17;;;24.30;59.90;;;;;;4948881;28;95869;-60
2022/01/02 01:44:51;;;;;;;1.00;0.95;;;24.40;59.80;;;;;;4945845;28;97536;-57
2022/01/02 01:46:58;;;;;;;2.00;1.02;;;24.40;59.80;;;;;;4936431;28;97173;-59
2022/01/02 01:49:30;;;;;;;0.80;0.80;;;24.50;59.80;;;;;;4935263;28;95870;-58
2022/01/02 01:52:03;;;;;;;1.65;1.30;;;24.50;59.60;;;;;;4945558;28;95668;-57
2022/01/02 01:54:33;;;;;;;0.93;0.88;;;24.50;59.60;;;;;;4945783;28;96315;-57
2022/01/02 01:57:05;;;;;;;0.90;0.90;;;24.50;59.50;;;;;;4939523;28;96266;-59
2022/01/02 01:59:38;;;;;;;1.00;1.00;;;24.60;59.50;;;;;;4943970;28;95923;-58
2022/01/02 02:02:10;;;;;;;1.20;0.93;;;24.60;59.30;;;;;;4936449;28;95999;-59
2022/01/02 02:04:42;;;;;;;0.95;0.90;;;24.60;59.20;;;;;;4966316;28;97773;-60
2022/01/02 02:07:26;;;;;;;0.98;0.98;;;24.70;59.20;;;;;;4947559;28;95573;-57
2022/01/02 02:10:11;;;;;;;1.13;1.10;;;24.70;59.10;;;;;;4936105;28;96031;-57
2022/01/02 02:12:47;;;;;;;1.92;1.20;;;24.70;59.00;;;;;;4949519;28;95780;-57
2022/01/02 02:15:20;;;;;;;1.08;0.98;;;24.70;59.00;;;;;;4960696;28;98978;-56
2022/01/02 02:17:51;;;;;;;;;;;24.80;59.00;;;;;;4950199;28;95643;-60
2022/01/02 02:20:29;;;;;;;1.30;1.20;;;24.80;58.90;;;;;;4966328;28;95821;-59
2022/01/02 02:23:02;;;;;;;1.02;0.98;;;24.90;58.80;;;;;;4943440;28;95818;-59
2022/01/02 02:25:37;;;;;;;3.17;0.95;;;24.90;58.70;;;;;;4937708;28;98031;-60
2022/01/02 02:28:14;;;;;;;1.20;1.10;;;24.90;58.70;;;;;;4964309;28;95975;-61
2022/01/02 02:30:48;;;;;;;1.05;1.00;;;25.00;58.60;;;;;;4939661;28;95731;-58
2022/01/02 02:33:18;;;;;;;1.00;0.90;;;25.10;58.50;;;;;;4963823;28;95673;-59
2022/01/02 02:35:50;;;;;;;0.87;0.87;;;25.10;58.40;;;;;;4947151;28;98350;-58
2022/01/02 02:38:22;;;;;;;0.80;0.80;;;25.20;58.40;;;;;;4949936;28;95478;-57
2022/01/02 02:40:58;;;;;;;1.23;0.80;;;25.20;58.30;;;;;;4941675;28;96013;-59
2022/01/02 02:43:50;;;;;;;1.80;0.93;;;25.20;58.20;;;;;;4950866;28;96793;-58
2022/01/02 02:49:15;;;;;;;1.23;0.98;;;25.30;58.10;;;;;;4962218;28;95979;-60
2022/01/02 02:54:35;;;;;;;1.00;1.00;;;25.30;57.90;;;;;;4965052;28;97526;-58
2022/01/02 02:57:12;;;;;;;0.70;0.70;;;25.40;57.90;;;;;;4939457;28;98538;-56
2022/01/02 02:59:44;;;;;;;0.93;0.93;;;25.50;57.80;;;;;;4946011;28;95927;-61
2022/01/02 03:02:15;;;;;;;0.95;0.95;;;25.50;58.40;;;;;;4942651;28;98242;-60
2022/01/02 03:04:49;;;;;;;0.90;0.90;;;25.50;57.70;;;;;;4948783;28;95485;-60
2022/01/02 03:07:22;;;;;;;0.80;0.80;;;25.60;57.70;;;;;;4946324;28;98011;-59
2022/01/02 03:09:58;;;;;;;1.00;1.00;;;25.60;57.60;;;;;;4963553;28;97271;-59
2022/01/02 03:12:28;;;;;;;0.75;0.75;;;25.60;57.50;;;;;;4963634;28;95824;-59
2022/01/02 03:14:57;;;;;;;1.67;1.10;;;25.70;57.50;;;;;;4951282;28;97442;-59
2022/01/02 03:17:28;;;;;;;1.05;0.98;;;25.70;57.40;;;;;;4942432;28;98542;-63
2022/01/02 03:20:01;;;;;;;0.65;0.65;;;25.80;57.40;;;;;;4947706;28;95486;-59
2022/01/02 03:22:32;;;;;;;1.23;1.13;;;25.80;57.30;;;;;;4949798;28;95808;-60
2022/01/02 03:25:03;;;;;;;0.80;0.80;;;25.90;57.20;;;;;;4965505;28;95827;-57
2022/01/02 03:27:35;;;;;;;1.17;1.00;;;25.90;57.10;;;;;;4949458;28;98135;-60
2022/01/02 03:30:07;;;;;;;1.88;1.15;;;25.90;57.00;;;;;;4946278;28;95798;-59
2022/01/02 03:32:40;;;;;;;1.00;0.90;;;25.90;57.00;;;;;;4958801;28;96288;-58
2022/01/02 03:35:12;;;;;;;0.80;0.80;;;26.00;56.90;;;;;;4946193;28;95779;-59
2022/01/02 03:37:44;;;;;;;1.10;1.10;;;26.00;56.90;;;;;;4934616;28;98071;-60
2022/01/02 03:40:16;;;;;;;0.90;0.90;;;26.00;56.80;;;;;;4949064;28;95401;-63
2022/01/02 03:42:48;;;;;;;0.98;0.90;;;26.10;56.80;;;;;;4948369;28;95998;-60
2022/01/02 03:45:20;;;;;;;1.20;1.10;;;26.10;56.70;;;;;;4941502;28;96597;-57
2022/01/02 03:47:50;;;;;;;1.42;1.20;;;26.20;56.60;;;;;;4949932;28;98432;-58
2022/01/02 03:50:21;;;;;;;1.50;1.00;;;25.90;53.20;;;;;;4981057;28;96072;-58
2022/01/02 03:52:52;;;;;;;1.38;1.30;;;25.60;52.40;;;;;;4965169;28;97917;-57
2022/01/02 03:55:23;;;;;;;1.70;1.00;;;25.40;52.10;;;;;;4945792;28;95473;-56
2022/01/02 03:57:54;;;;;;;1.80;1.07;;;25.20;51.80;;;;;;4936017;28;99831;-57
2022/01/02 04:00:25;;;;;;;2.42;2.00;;;25.20;51.60;;;;;;4938458;28;96207;-57
2022/01/02 04:02:55;;;;;;;3.17;2.00;;;25.20;51.30;;;;;;4939425;28;95524;-58
2022/01/02 04:05:27;;;;;;;3.55;2.53;;;25.10;50.90;;;;;;4946297;28;96157;-56
2022/01/02 04:08:03;;;;;;;4.00;2.53;;;25.10;51.00;;;;;;4950514;28;96216;-59
2022/01/02 04:10:35;;;;;;;2.35;2.10;;;25.10;50.90;;;;;;4950083;28;95984;-58
2022/01/02 04:13:06;;;;;;;4.15;2.33;;;25.10;50.80;;;;;;4947424;28;95861;-57
2022/01/02 04:15:36;;;;;;;;;;;25.10;50.60;;;;;;4935901;28;95648;-59
2022/01/02 04:18:09;;;;;;;2.95;2.60;;;25.10;50.40;;;;;;4981432;28;97866;-59
2022/01/02 04:20:41;;;;;;;2.33;2.13;;;25.00;50.10;;;;;;4947634;28;97100;-55
2022/01/02 04:23:12;;;;;;;2.63;2.40;;;25.00;49.90;;;;;;4963816;28;96538;-58
2022/01/02 04:25:44;;;;;;;2.63;2.42;;;25.00;49.80;;;;;;4948766;28;95812;-57
2022/01/02 04:28:15;;;;;;;2.75;2.30;;;25.00;49.60;;;;;;4946584;28;97944;-57
2022/01/02 04:30:45;;;;;;;3.50;2.15;;;24.90;49.50;;;;;;4954866;28;97491;-59
2022/01/02 04:33:17;;;;;;;2.45;1.83;;;24.90;49.50;;;;;;4962155;28;96118;-59
2022/01/02 04:35:48;;;;;;;3.95;2.03;;;24.90;49.30;;;;;;4949661;28;95799;-59
2022/01/02 04:38:20;;;;;;;2.20;1.83;;;24.90;49.20;;;;;;4947744;28;96418;-57
2022/01/02 04:40:52;;;;;;;2.50;1.90;;;24.90;49.10;;;;;;4949662;28;95921;-57
2022/01/02 04:43:21;;;;;;;;;;;24.90;49.00;;;;;;4949551;28;95890;-58
2022/01/02 04:45:52;;;;;;;2.63;1.88;;;24.90;49.00;;;;;;4935496;28;95484;-57
2022/01/02 04:48:25;;;;;;;2.08;1.65;;;24.90;48.80;;;;;;4978861;28;96383;-58
2022/01/02 04:50:55;;;;;;;2.35;1.33;;;24.90;48.80;;;;;;4947771;28;95699;-57
2022/01/02 04:53:30;;;;;;;2.75;2.05;;;24.90;48.70;;;;;;4948368;28;96408;-58
2022/01/02 04:56:00;;;;;;;3.55;1.90;;;24.80;48.60;;;;;;4956944;28;96048;-58
2022/01/02 04:58:31;;;;;;;3.10;1.90;;;24.80;48.50;;;;;;4937053;28;96078;-59
2022/01/02 05:01:02;;;;;;;2.50;2.03;;;24.80;46.50;;;;;;4948212;28;96065;-61
2022/01/02 05:03:34;;;;;;;;;;;24.80;48.50;;;;;;4962989;28;97293;-60
2022/01/02 05:06:07;;;;;;;2.40;1.52;;;24.80;48.40;;;;;;4959753;28;95709;-57
2022/01/02 05:08:43;;;;;;;1.85;1.63;;;24.80;48.30;;;;;;4955959;28;96502;-57
2022/01/02 05:11:16;;;;;;;1.70;1.60;;;24.80;48.30;;;;;;4948718;28;95898;-57
2022/01/02 05:13:47;;;;;;;2.72;1.83;;;24.80;48.10;;;;;;4946820;28;95432;-59
2022/01/02 05:16:19;;;;;;;2.00;1.75;;;24.80;48.00;;;;;;4953947;28;97440;-58
2022/01/02 05:18:51;;;;;;;3.72;1.63;;;24.70;47.90;;;;;;4959574;28;97293;-58
2022/01/02 05:21:25;;;;;;;2.53;1.30;;;24.80;48.00;;;;;;4960480;28;96828;-57
2022/01/02 05:23:57;;;;;;;2.00;1.50;;;24.70;47.90;;;;;;4947748;28;96068;-59
2022/01/02 05:26:29;;;;;;;1.98;1.77;;;24.70;48.00;;;;;;4935106;28;95553;-60
2022/01/02 05:29:03;;;;;;;2.08;1.48;;;24.70;48.00;;;;;;4943955;28;96332;-58
2022/01/02 05:31:36;;;;;;;2.28;1.50;;;24.70;47.90;;;;;;4928079;28;96513;-58
2022/01/02 05:34:08;;;;;;;1.83;1.67;;;24.70;47.90;;;;;;4943527;28;95512;-56
2022/01/02 05:36:48;;;;;;;1.67;1.20;;;24.70;47.90;;;;;;4964161;28;95537;-58
2022/01/02 05:39:23;;;;;;;2.53;1.35;;;24.70;48.00;;;;;;4943860;28;96121;-60
2022/01/02 05:41:55;;;;;;;1.85;1.75;;;24.70;48.00;;;;;;4964283;28;96057;-62
2022/01/02 05:44:25;;;;;;;1.38;1.27;;;24.70;48.00;;;;;;4939950;28;96116;-58
2022/01/02 05:46:55;;;;;;;5.57;1.55;;;24.80;48.00;;;;;;4942612;28;98775;-60
2022/01/02 05:49:25;;;;;;;2.28;1.42;;;24.70;47.90;;;;;;4966539;28;98657;-60
2022/01/02 05:51:58;;;;;;;1.70;1.40;;;24.70;47.90;;;;;;4965549;28;97525;-59
2022/01/02 05:54:28;;;;;;;2.33;1.40;;;24.80;47.90;;;;;;4944445;28;96596;-59
2022/01/02 05:56:59;;;;;;;1.80;1.48;;;24.70;47.90;;;;;;4943307;28;97826;-59
2022/01/02 05:59:31;;;;;;;4.43;1.58;;;24.70;47.90;;;;;;4947018;28;96087;-58
2022/01/02 06:02:02;;;;;;;2.33;1.42;;;24.70;47.90;;;;;;4935244;28;95507;-57
2022/01/02 06:04:34;;;;;;;1.38;1.25;;;24.70;47.90;;;;;;4963420;28;95934;-59
2022/01/02 06:07:06;;;;;;;1.80;1.13;;;24.70;47.80;;;;;;4949650;28;95734;-57
2022/01/02 06:09:37;;;;;;;2.10;1.27;;;24.70;47.60;;;;;;4963091;28;96073;-58
2022/01/02 06:12:08;;;;;;;1.08;1.00;;;24.70;47.60;;;;;;4948831;28;97645;-56
2022/01/02 06:14:38;;;;;;;1.80;1.45;;;24.70;47.50;;;;;;4944212;28;95901;-58
2022/01/02 06:17:09;;;;;;;2.55;1.00;;;24.70;47.50;;;;;;4943547;28;95533;-57
2022/01/02 06:19:41;;;;;;;1.90;1.33;;;24.60;47.30;;;;;;4946980;28;98538;-60
2022/01/02 06:22:11;;;;;;;2.15;1.50;;;24.60;47.20;;;;;;4948070;28;96293;-59
2022/01/02 06:24:42;;;;;;;2.70;1.42;;;24.60;47.20;;;;;;4948495;28;95430;-59
2022/01/02 06:27:15;;;;;;;1.60;1.15;;;24.60;47.10;;;;;;4965528;28;96126;-57
2022/01/02 06:29:48;;;;;;;1.50;1.20;;;24.60;47.10;;;;;;4949751;28;96012;-60
2022/01/02 06:32:21;;;;;;;1.20;1.00;;;24.60;47.00;;;;;;4927499;28;97459;-58
2022/01/02 06:34:52;;;;;;;1.40;1.00;;;24.50;47.00;;;;;;4928762;28;95857;-59
2022/01/02 06:37:23;;;;;;;1.23;1.13;;;24.50;46.80;;;;;;4929113;28;95419;-58
2022/01/02 06:39:54;;;;;;;1.75;1.40;;;24.50;46.80;;;;;;4930149;28;96071;-57
2022/01/02 06:42:24;;;;;;;;;;;24.40;46.70;;;;;;4945228;28;95869;-55
2022/01/02 06:44:54;;;;;;;1.23;1.13;;;24.50;46.80;;;;;;4932976;28;95763;-59
2022/01/02 06:47:24;;;;;;;6.32;1.20;;;24.50;46.70;;;;;;4941044;28;95768;-58
2022/01/02 06:49:55;;;;;;;2.73;1.37;;;24.40;46.80;;;;;;4948377;28;98169;-57
2022/01/02 06:52:26;;;;;;;0.98;0.93;;;24.40;47.90;;;;;;4948836;28;95856;-56
2022/01/02 06:54:57;;;;;;;4.43;1.10;;;24.50;50.20;;;;;;4948537;28;95938;-60
2022/01/02 06:57:29;;;;;;;1.10;0.95;;;24.50;50.60;;;;;;4934405;28;96138;-56
2022/01/02 07:00:00;;;;;;;2.75;1.40;;;24.50;50.90;;;;;;4942843;28;98589;-61
2022/01/02 07:02:31;;;;;;;1.73;1.25;;;24.40;50.80;;;;;;4948321;28;95529;-61
2022/01/02 07:05:03;;;;;;;2.90;1.60;;;24.40;51.70;;;;;;4949546;28;95636;-60
2022/01/02 07:07:44;;;;;;;6.53;1.73;;;24.30;52.40;;;;;;4948205;28;95838;-60
2022/01/02 07:10:16;;;;;;;4.18;1.55;;;24.30;53.30;;;;;;4947203;28;98436;-61
2022/01/02 07:12:46;;;;;;;5.95;1.85;;;24.30;54.60;;;;;;4949285;28;96051;-59
2022/01/02 07:15:16;;;;;;;9.73;2.15;;;24.30;55.10;;;;;;4949670;28;96250;-57
2022/01/02 07:17:51;;;;;;;10.60;1.73;;;24.30;56.60;;;;;;4948257;28;96019;-58
2022/01/02 07:20:23;;;;;;;4.55;1.67;;;24.30;56.60;;;;;;4948462;28;97105;-58
2022/01/02 07:22:53;;;;;;;;;;;24.30;56.60;;;;;;4947436;28;95492;-59
2022/01/02 07:25:25;;;;;;;8.93;1.80;;;24.30;57.00;;;;;;4948337;28;96943;-60
2022/01/02 07:27:56;;;;;;;5.45;2.00;;;24.20;57.10;;;;;;4949489;28;95860;-61
2022/01/02 07:30:26;;;;;;;8.52;2.05;;;24.20;57.30;;;;;;4942690;28;95847;-57
2022/01/02 07:33:02;;;;;;;6.07;1.90;;;24.10;57.50;;;;;;4950462;28;95733;-56
2022/01/02 07:35:32;;;;;;;4.07;1.67;;;24.10;57.90;;;;;;4948499;28;96412;-58
2022/01/02 07:38:23;;;;;;;2.92;1.45;;;24.10;57.60;;;;;;4961867;28;96128;-59
2022/01/02 07:40:54;;;;;;;5.72;1.80;;;24.00;57.50;;;;;;4949302;28;96148;-57
2022/01/02 07:43:25;;;;;;;7.45;2.33;;;24.00;59.20;;;;;;4947743;28;95977;-58
2022/01/02 07:45:55;;;;;;;9.02;2.30;;;24.00;59.10;;;;;;4941547;28;96878;-61
2022/01/02 07:48:27;;;;;;;;;;;24.00;60.00;;;;;;4948520;28;95616;-61
2022/01/02 07:50:57;;;;;;;5.45;1.92;;;24.10;60.30;;;;;;4950428;28;97561;-58
2022/01/02 07:53:28;;;;;;;;;;;24.10;60.90;;;;;;4950609;28;96027;-63
2022/01/02 07:55:58;;;;;;;8.35;2.05;;;24.10;61.00;;;;;;4945520;28;95803;-61
2022/01/02 07:58:28;;;;;;;9.27;2.10;;;24.10;61.10;;;;;;4938420;28;95491;-56
2022/01/02 08:00:59;;;;;;;11.55;4.43;;;24.10;61.30;;;;;;4939841;28;96629;-63
2022/01/02 08:03:30;;;;;;;25.42;21.17;;;24.00;61.70;;;;;;4950057;28;95889;-58
2022/01/02 08:06:02;;;;;;;45.22;39.72;;;24.00;61.60;;;;;;4947445;28;95676;-62
2022/01/02 08:08:34;;;;;;;24.50;21.02;;;23.90;61.70;;;;;;4948721;28;96029;-57
2022/01/02 08:11:05;;;;;;;8.27;6.50;;;23.70;61.70;;;;;;4947738;28;96418;-60
2022/01/02 08:13:35;;;;;;;5.28;3.50;;;23.70;62.10;;;;;;4950272;28;95998;-62
2022/01/02 08:16:05;;;;;;;5.38;2.50;;;23.60;62.20;;;;;;4941123;28;96003;-61
2022/01/02 08:18:38;;;;;;;5.10;2.50;;;23.70;62.30;;;;;;4939289;28;96275;-55
2022/01/02 08:21:09;;;;;;;7.97;2.55;;;23.80;62.10;;;;;;4947607;28;96143;-61
2022/01/02 08:23:39;;;;;;;4.25;2.33;;;23.80;62.10;;;;;;4948190;28;96011;-61
2022/01/02 08:26:23;;;;;;;7.95;1.95;;;23.90;62.30;;;;;;4944811;28;96846;-59
2022/01/02 08:28:55;;;;;;;2.20;1.40;;;23.90;62.60;;;;;;4948890;28;97047;-58
2022/01/02 08:31:24;;;;;;;;;;;23.90;60.50;;;;;;4940315;28;96620;-56
2022/01/02 08:33:56;;;;;;;5.20;2.17;;;23.90;62.60;;;;;;4948499;28;95713;-61
2022/01/02 08:36:27;;;;;;;7.60;2.35;;;23.80;62.70;;;;;;4949721;28;95779;-60
2022/01/02 08:38:59;;;;;;;6.03;1.95;;;23.90;63.00;;;;;;4950056;28;95333;-56
2022/01/02 08:41:29;;;;;;;6.43;1.90;;;23.80;63.10;;;;;;4945460;28;96951;-59
2022/01/02 08:44:00;;;;;;;4.20;1.48;;;23.70;63.20;;;;;;4944993;28;96404;-59
2022/01/02 08:46:30;;;;;;;9.50;2.75;;;23.70;63.40;;;;;;4938860;28;95365;-59
2022/01/02 08:49:01;;;;;;;6.43;2.33;;;23.60;63.50;;;;;;4947081;28;95688;-59
2022/01/02 08:51:32;;;;;;;6.65;1.92;;;23.60;63.50;;;;;;4945914;28;96508;-64
2022/01/02 08:54:05;;;;;;;;;;;23.60;63.80;;;;;;4949178;28;95794;-59
2022/01/02 08:56:36;;;;;;;5.90;1.73;;;23.50;63.60;;;;;;4943800;28;97888;-60
2022/01/02 08:59:08;;;;;;;6.15;1.90;;;23.50;63.70;;;;;;4941783;28;95604;-62
2022/01/02 09:01:39;;;;;;;5.97;1.75;;;23.40;64.00;;;;;;4935079;28;96571;-62
2022/01/02 09:04:10;;;;;;;;;;;23.20;64.20;;;;;;4948182;28;95734;-57
2022/01/02 09:06:43;;;;;;;8.20;2.28;;;23.20;64.80;;;;;;4952570;28;95758;-58
2022/01/02 09:09:13;;;;;;;4.78;1.58;;;23.00;62.70;;;;;;4952462;28;98029;-57
2022/01/02 09:11:44;;;;;;;7.65;2.03;;;22.90;65.10;;;;;;4952552;28;96241;-58
2022/01/02 09:14:14;;;;;;;4.75;1.63;;;22.80;65.70;;;;;;4953613;28;95936;-57
2022/01/02 09:16:44;;;;;;;;;;;22.80;65.70;;;;;;4946088;28;95925;-61
2022/01/02 09:19:15;;;;;;;6.00;1.83;;;22.80;65.90;;;;;;4954259;28;95905;-57
2022/01/02 09:21:47;;;;;;;4.45;1.70;;;22.80;65.90;;;;;;4950576;28;96764;-56
2022/01/02 09:24:17;;;;;;;6.93;2.05;;;22.80;65.90;;;;;;4952570;28;95891;-63
2022/01/02 09:26:49;;;;;;;10.30;3.15;;;22.60;66.30;;;;;;4953758;28;96019;-59
2022/01/02 09:29:19;;;;;;;4.95;1.50;;;22.50;66.40;;;;;;4952004;28;95654;-59
2022/01/02 09:31:52;;;;;;;7.88;1.98;;;22.40;65.80;;;;;;4944987;28;96115;-57
2022/01/02 09:34:22;;;;;;;4.78;1.55;;;22.40;67.30;;;;;;4952343;28;96361;-63
2022/01/02 09:36:52;;;;;;;11.43;2.08;;;22.50;67.20;;;;;;4951652;28;95905;-58
2022/01/02 09:39:24;;;;;;;4.78;1.83;;;22.40;66.80;;;;;;4951245;28;95443;-58
2022/01/02 09:41:56;;;;;;;4.00;1.67;;;22.40;67.30;;;;;;4952527;28;96172;-56
2022/01/02 09:44:26;;;;;;;;;;;22.30;66.70;;;;;;4952199;28;95898;-58
2022/01/02 09:46:58;;;;;;;7.68;1.90;;;22.30;66.90;;;;;;4947087;28;95737;-57
2022/01/02 09:49:32;;;;;;;5.47;1.63;;;22.20;67.30;;;;;;4951185;28;97430;-62
2022/01/02 09:52:04;;;;;;;14.07;2.65;;;22.10;67.50;;;;;;4966091;28;97020;-57
2022/01/02 09:54:35;;;;;;;12.82;1.98;;;22.00;67.50;;;;;;4950288;28;96109;-64
2022/01/02 09:57:06;;;;;;;6.55;1.90;;;21.90;67.80;;;;;;4938531;28;101394;-57
2022/01/02 09:59:37;;;;;;;11.90;2.05;;;21.70;68.70;;;;;;4948381;28;95872;-62
2022/01/02 10:02:08;;;;;;;8.17;1.80;;;21.70;68.80;;;;;;4929184;28;97980;-62
2022/01/02 10:04:42;;;;;;;6.03;1.65;;;21.60;69.00;;;;;;4928987;28;95851;-59
2022/01/02 10:07:30;;;;;;;5.78;1.63;;;21.50;69.20;;;;;;4931918;28;95414;-62
2022/01/02 10:10:12;;;;;;;7.32;1.88;;;21.50;69.30;;;;;;4929330;28;95967;-58
2022/01/02 10:12:45;;;;;;;6.70;2.20;;;21.40;69.10;;;;;;4940043;28;95975;-58
2022/01/02 10:15:21;;;;;;;8.73;1.58;;;21.30;69.70;;;;;;4921797;28;95971;-58
2022/01/02 10:18:11;;;;;;;6.63;1.90;;;21.30;69.90;;;;;;4929585;28;98170;-62
2022/01/02 10:20:47;;;;;;;11.93;2.08;;;21.30;70.40;;;;;;4931473;28;95837;-62
2022/01/02 10:23:18;;;;;;;6.28;2.20;;;21.30;70.10;;;;;;4929682;28;97617;-60
2022/01/02 10:25:55;;;;;;;7.78;2.15;;;21.30;70.40;;;;;;4930603;28;97452;-61
2022/01/02 10:28:33;;;;;;;5.78;1.48;;;21.30;70.20;;;;;;4928739;28;97051;-60
2022/01/02 10:31:12;;;;;;;4.32;1.50;;;21.20;70.20;;;;;;4930357;28;95783;-60
2022/01/02 10:34:01;;;;;;;7.57;1.58;;;21.20;68.10;;;;;;4952246;28;96221;-58
2022/01/02 10:36:35;;;;;;;9.55;1.88;;;21.10;70.70;;;;;;4950222;28;95851;-56
2022/01/02 10:39:15;;;;;;;5.78;1.75;;;21.00;71.10;;;;;;4952114;28;95742;-62
2022/01/02 10:41:48;;;;;;;4.90;1.42;;;20.90;71.20;;;;;;4951196;28;95411;-62
2022/01/02 10:44:26;;;;;;;4.63;2.00;;;20.90;71.40;;;;;;4948859;28;96004;-59
2022/01/02 10:47:16;;;;;;;9.82;1.88;;;20.80;71.60;;;;;;4941778;28;95478;-63
2022/01/02 10:50:08;;;;;;;6.38;1.80;;;20.70;71.70;;;;;;4948695;28;95245;-57
2022/01/02 10:52:47;;;;;;;6.40;1.88;;;20.60;72.10;;;;;;4950310;28;97480;-57
2022/01/02 10:55:25;;;;;;;3.90;1.60;;;20.60;72.00;;;;;;4947629;28;96733;-60
2022/01/02 10:57:59;;;;;;;4.50;1.52;;;20.60;72.30;;;;;;4939275;28;96043;-58
2022/01/02 11:00:30;;;;;;;5.50;1.50;;;20.60;72.50;;;;;;4940815;28;97312;-64
2022/01/02 11:03:01;;;;;;;5.30;1.67;;;20.60;72.40;;;;;;4949760;28;96159;-58
2022/01/02 11:05:34;;;;;;;5.53;1.70;;;20.60;72.30;;;;;;4965068;28;96987;-59
2022/01/02 11:08:06;;;;;;;9.27;2.13;;;20.60;72.20;;;;;;4950035;28;95934;-57
2022/01/02 11:10:38;;;;;;;6.93;2.30;;;20.60;72.30;;;;;;4948015;28;95759;-58
2022/01/02 11:13:10;;;;;;;;;;;20.60;72.10;;;;;;4951611;28;95840;-63
2022/01/02 11:15:42;;;;;;;6.70;2.20;;;20.60;72.70;;;;;;4942576;28;96388;-58
2022/01/02 11:18:14;;;;;;;3.75;1.65;;;20.50;72.60;;;;;;4948997;28;96302;-58
2022/01/02 11:20:47;;;;;;;7.35;1.75;;;20.60;72.20;;;;;;4965913;28;96244;-63
2022/01/02 11:23:21;;;;;;;7.28;1.63;;;20.50;72.20;;;;;;4949369;28;95754;-58
2022/01/02 11:26:00;;;;;;;8.27;1.65;;;20.60;73.00;;;;;;4948070;28;96880;-59
2022/01/02 11:28:42;;;;;;;4.70;1.98;;;20.50;71.70;;;;;;4949847;28;95968;-62
2022/01/02 11:31:29;;;;;;;6.15;2.08;;;20.50;72.50;;;;;;4941743;28;95986;-59
2022/01/02 11:34:00;;;;;;;4.97;1.95;;;20.60;72.20;;;;;;4948480;28;95947;-63
2022/01/02 11:36:36;;;;;;;4.30;1.50;;;20.60;72.10;;;;;;4942696;28;96366;-57
2022/01/02 11:39:09;;;;;;;7.88;1.88;;;20.60;71.60;;;;;;4950299;28;95809;-63
2022/01/02 11:41:46;;;;;;;9.10;1.75;;;20.70;72.20;;;;;;4951370;28;95916;-60
2022/01/02 11:44:17;;;;;;;6.80;1.88;;;20.60;71.90;;;;;;4950472;28;95708;-56
2022/01/02 11:46:59;;;;;;;8.43;2.00;;;20.70;69.80;;;;;;4940844;28;95873;-57
2022/01/02 11:49:44;;;;;;;7.60;1.83;;;20.60;72.10;;;;;;4949221;28;96011;-57
2022/01/02 11:52:26;;;;;;;7.78;1.88;;;20.60;72.40;;;;;;4949948;28;98007;-63
2022/01/02 11:54:56;;;;;;;4.75;1.75;;;20.50;73.00;;;;;;4964664;28;95822;-56
2022/01/02 11:57:27;;;;;;;6.65;1.77;;;20.50;72.40;;;;;;4941119;28;96399;-64
2022/01/02 11:59:59;;;;;;;6.07;2.00;;;20.60;72.30;;;;;;4948505;28;95903;-59
2022/01/02 12:02:38;;;;;;;5.18;1.63;;;20.50;72.40;;;;;;4949198;28;95569;-63
2022/01/02 12:05:13;;;;;;;6.63;2.08;;;20.40;72.60;;;;;;4951187;28;97158;-60
2022/01/02 12:07:53;;;;;;;4.28;1.35;;;20.50;72.50;;;;;;4943848;28;96483;-59
2022/01/02 12:10:28;;;;;;;10.13;2.00;;;20.50;72.70;;;;;;4949733;28;95785;-64
2022/01/02 12:13:10;;;;;;;6.47;1.83;;;20.50;72.60;;;;;;4947144;28;95247;-60
2022/01/02 12:15:44;;;;;;;8.05;1.80;;;20.50;72.40;;;;;;4948547;28;95629;-60
2022/01/02 12:18:17;;;;;;;6.05;1.40;;;20.40;72.50;;;;;;4948418;28;97568;-65
2022/01/02 12:20:52;;;;;;;7.60;1.50;;;20.40;72.50;;;;;;4950011;28;96141;-63
2022/01/02 12:23:32;;;;;;;4.55;1.27;;;20.40;72.50;;;;;;4948477;28;95382;-63
2022/01/02 12:26:05;;;;;;;;;;;20.40;71.70;;;;;;4949983;28;95628;-63
2022/01/02 12:29:06;;;;;;;6.10;2.08;;;20.40;72.70;;;;;;4950659;28;96189;-63
2022/01/02 12:31:43;;;;;;;4.77;1.23;;;20.40;72.40;;;;;;4941507;28;97960;-64
2022/01/02 12:34:18;;;;;;;5.20;1.60;;;20.30;72.50;;;;;;4950274;28;95830;-64
2022/01/02 12:36:51;;;;;;;4.18;1.48;;;20.30;72.10;;;;;;4948087;28;95757;-64
2022/01/02 12:39:35;;;;;;;4.05;1.48;;;20.30;72.60;;;;;;4945755;28;96484;-58
2022/01/02 12:42:14;;;;;;;4.82;1.50;;;20.30;72.50;;;;;;4946628;28;95968;-64
2022/01/02 12:44:47;;;;;;;5.18;1.52;;;20.30;72.40;;;;;;4950473;28;95753;-64
2022/01/02 12:47:24;;;;;;;9.07;1.70;;;20.30;72.30;;;;;;4940213;28;95796;-56
2022/01/02 12:49:58;;;;;;;4.32;1.42;;;20.30;72.40;;;;;;4948432;28;96369;-65
2022/01/02 12:52:32;;;;;;;7.00;1.42;;;20.20;72.20;;;;;;4948207;28;95720;-57
2022/01/02 12:55:02;;;;;;;8.20;1.50;;;20.20;72.50;;;;;;4946196;28;95608;-55
2022/01/02 12:57:32;;;;;;;8.88;1.85;;;20.10;72.30;;;;;;4938126;28;97123;-64
2022/01/02 13:00:05;;;;;;;6.68;1.58;;;20.20;72.50;;;;;;4946787;28;96453;-57
2022/01/02 13:02:38;;;;;;;3.63;1.23;;;20.10;72.40;;;;;;4943020;28;95688;-63
2022/01/02 13:05:12;;;;;;;4.82;1.58;;;20.10;72.40;;;;;;4950224;28;95342;-64
2022/01/02 13:07:44;;;;;;;4.80;1.35;;;20.00;72.70;;;;;;4964491;28;96996;-64
2022/01/02 13:10:15;;;;;;;2.80;1.25;;;20.10;72.80;;;;;;4949518;28;96088;-57
2022/01/02 13:12:46;;;;;;;;;;;20.10;72.50;;;;;;4950017;28;95822;-63
2022/01/02 13:15:20;;;;;;;7.95;1.83;;;20.00;72.30;;;;;;4941865;28;95911;-63
2022/01/02 13:17:57;;;;;;;4.97;1.77;;;20.00;72.20;;;;;;4930265;28;95330;-63
2022/01/02 13:20:34;;;;;;;5.70;1.35;;;20.00;72.30;;;;;;4929052;28;96127;-63
2022/01/02 13:23:08;;;;;;;5.35;1.90;;;19.80;72.30;;;;;;4927653;28;96039;-63
2022/01/02 13:25:45;;;;;;;4.18;1.20;;;19.80;72.50;;;;;;4930596;28;95726;-59
2022/01/02 13:28:18;;;;;;;3.17;1.45;;;19.70;72.20;;;;;;4928717;28;96255;-63